Latest Coastal Weather Observations for Newcastle Nobbys

IDN60701

Issued at 6:41 am EST Monday 3 August 2015 (issued every 10 minutes, with the page automatically refreshed every 10 minutes)

About coastal observations | Map of coastal stations | Coastal observations for NSW | Marine services | Other Formats
Station Details ID: 061055 Name: NEWCASTLE NOBBYS SIGNAL STATION AWS Lat: -32.92 Lon: 151.80 Height: 33.0 m
Data from the previous 72 hours. | See also: Recent months at Newcastle Nobbys
Date/Time
EST
Temp

°C
Wind Pressure Rain
since 9am
mm
Weather Cloud Vis
km
Sea
Height
m
Swell
Dir
 
Speed
knots
Gust
knots
hPa Trend Height
m
Period
s
Dir
03/06:30am 12.4 NW 12 16 - - 0.0 - - - - - - -
03/06:00am 13.2 WNW 11 16 - - 0.0 - - - - - - -
03/05:30am 13.9 WNW 11 14 - - 0.0 - - - - - - -
03/05:00am 14.5 WNW 13 17 - - 0.0 - - - - - - -
03/04:30am 15.0 WNW 10 12 - - 0.0 - - - - - - -
03/04:00am 15.7 WNW 10 12 - - 0.0 - - - - - - -
03/03:30am 16.2 WNW 11 14 - - 0.0 - - - - - - -
03/03:00am 16.7 WNW 9 12 - - 0.0 - - - - - - -
03/02:30am 17.0 WNW 6 7 - - 0.0 - - - - - - -
03/02:00am 18.0 WNW 7 9 - - 0.0 - - - - - - -
03/01:30am 18.8 WNW 6 8 - - 0.0 - - - - - - -
03/01:00am 19.7 WNW 11 17 - - 0.0 - - - - - - -
03/12:30am 20.2 WNW 9 13 - - 0.0 - - - - - - -
03/12:00am 20.7 WNW 16 24 - - 0.0 - - - - - - -
 
Date/Time
EST
Temp

°C
Wind Pressure Rain
since 9am
mm
Weather Cloud Vis
km
Sea
Height
m
Swell
Dir
 
Speed
knots
Gust
knots
hPa Trend Height
m
Period
s
Dir
02/11:30pm 20.8 WNW 15 21 - - 0.0 - - - - - - -
02/11:00pm 20.6 W 13 19 - - 0.0 - - - - - - -
02/10:30pm 20.8 WNW 13 17 - - 0.0 - - - - - - -
02/10:00pm 21.0 WNW 14 19 - - 0.0 - - - - - - -
02/09:30pm 21.1 WNW 13 16 - - 0.0 - - - - - - -
02/09:00pm 21.1 WNW 16 19 - - 0.0 - - - - - - -
02/08:30pm 21.5 WNW 14 19 - - 0.0 - - - - - - -
02/08:00pm 21.8 WNW 17 21 - - 0.0 - - - - - - -
02/07:30pm 22.1 WNW 16 20 - - 0.0 - - - - - - -
02/07:00pm 22.6 WNW 15 19 - - 0.0 - - - - - - -
02/06:30pm 23.3 WNW 17 24 - - 0.0 - - - - - - -
02/06:00pm 23.8 NW 19 26 - - 0.0 - - - - - - -
02/05:50pm 23.3 NW 17 27 - - 0.0 - - - - - - -
02/05:30pm 23.0 NW 13 17 - - 0.0 - - - - - - -
02/05:00pm 23.3 NW 16 21 - - 0.0 - - - - - - -
02/04:30pm 24.4 NW 18 26 - - 0.0 - - - - - - -
02/04:00pm 25.4 NW 21 28 - - 0.0 - - - - - - -
02/03:30pm 25.9 WNW 19 29 - - 0.0 - - - - - - -
02/03:28pm 25.7 WNW 19 29 - - 0.0 - - - - - - -
02/03:00pm 26.5 WNW 21 28 - - 0.0 - - - - - - -
02/02:43pm 26.4 NW 21 31 - - 0.0 - - - - - - -
02/02:30pm 26.5 NW 24 31 - - 0.0 - - - - - - -
02/02:00pm 26.5 NW 19 27 - - 0.0 - - - - - - -
02/01:40pm 26.2 NW 21 32 - - 0.0 - - - - - - -
02/01:30pm 26.2 NW 23 31 - - 0.0 - - - - - - -
02/01:22pm 26.0 NW 20 31 - - 0.0 - - - - - - -
02/01:15pm 25.6 N 12 26 - - 0.0 - - - - - - -
02/01:00pm 21.4 ENE 10 13 - - 0.0 - - - - - - -
02/12:30pm 22.4 ENE 9 11 - - 0.0 - - - - - - -
02/12:00pm 21.6 NNE 8 10 - - 0.0 - - - - - - -
02/11:30am 21.9 NNE 6 8 - - 0.0 - - - - - - -
02/11:00am 21.2 N 8 11 - - 0.0 - - - - - - -
02/10:30am 20.9 NW 7 9 - - 0.0 - - - - - - -
02/10:00am 19.8 NW 7 11 - - 0.0 - - - - - - -
02/09:30am 18.4 NW 9 11 - - 0.0 - - - - - - -
02/09:00am 17.3 NW 9 11 - - 0.0 - - - - - - -
02/08:30am 15.6 WNW 9 11 - - 0.0 - - - - - - -
02/08:00am 14.6 NW 9 11 - - 0.0 - - - - - - -
02/07:30am 13.2 NNW 8 11 - - 0.0 - - - - - - -
02/07:00am 12.9 NNW 12 14 - - 0.0 - - - - - - -
02/06:30am 13.0 NNW 9 11 - - 0.0 - - - - - - -
02/06:00am 13.9 NNW 7 9 - - 0.0 - - - - - - -
02/05:30am 13.8 NW 3 6 - - 0.0 - - - - - - -
02/05:00am 13.5 NNE 8 11 - - 0.0 - - - - - - -
02/04:30am 14.3 N 6 6 - - 0.0 - - - - - - -
02/04:00am 15.9 WNW 5 6 - - 0.0 - - - - - - -
02/03:30am 15.0 WNW 7 8 - - 0.0 - - - - - - -
02/03:00am 13.9 NW 7 8 - - 0.0 - - - - - - -
02/02:30am 13.9 NW 5 6 - - 0.0 - - - - - - -
02/02:00am 14.2 NNW 7 8 - - 0.0 - - - - - - -
02/01:30am 14.9 NW 7 8 - - 0.0 - - - - - - -
02/01:00am 15.0 NW 8 9 - - 0.0 - - - - - - -
02/12:30am 15.2 NNW 10 12 - - 0.0 - - - - - - -
02/12:00am 15.9 NNW 11 12 - - 0.0 - - - - - - -
 
Date/Time
EST
Temp

°C
Wind Pressure Rain
since 9am
mm
Weather Cloud Vis
km
Sea
Height
m
Swell
Dir
 
Speed
knots
Gust
knots
hPa Trend Height
m
Period
s
Dir
01/11:30pm 16.4 NNW 10 13 - - 0.0 - - - - - - -
01/11:00pm 16.9 NNW 10 12 - - 0.0 - - - - - - -
01/10:30pm 18.1 NNW 10 12 - - 0.0 - - - - - - -
01/10:00pm 18.5 NNW 10 12 - - 0.0 - - - - - - -
01/09:30pm 18.9 NW 10 12 - - 0.0 - - - - - - -
01/09:00pm 18.8 NW 9 12 - - 0.0 - - - - - - -
01/08:30pm 19.0 NW 9 12 - - 0.0 - - - - - - -
01/08:00pm 19.0 NW 7 10 - - 0.0 - - - - - - -
01/07:30pm 19.3 NW 5 6 - - 0.0 - - - - - - -
01/07:00pm 18.5 N 5 6 - - 0.0 - - - - - - -
01/06:30pm 19.6 WNW 7 11 - - 0.0 - - - - - - -
01/06:00pm 19.9 WNW 8 10 - - 0.0 - - - - - - -
01/05:30pm 20.3 NW 9 12 - - 0.0 - - - - - - -
01/05:00pm 20.9 NW 10 14 - - 0.0 - - - - - - -
01/04:30pm 21.1 NW 8 11 - - 0.0 - - - - - - -
01/04:00pm 21.7 NW 16 21 - - 0.0 - - - - - - -
01/03:30pm 22.0 WNW 20 29 - - 0.0 - - - - - - -
01/03:14pm 22.1 WNW 16 26 - - 0.0 - - - - - - -
01/03:00pm 22.8 WNW 15 21 - - 0.0 - - - - - - -
01/02:30pm 22.1 WNW 23 30 - - 0.0 - - - - - - -
01/02:20pm 22.3 WNW 21 33 - - 0.0 - - - - - - -
01/02:00pm 21.8 NW 21 31 - - 0.0 - - - - - - -
01/01:57pm 21.2 NW 20 31 - - 0.0 - - - - - - -
01/01:30pm 21.7 WNW 16 21 - - 0.0 - - - - - - -
01/01:00pm 20.6 NW 15 22 - - 0.0 - - - - - - -
01/12:30pm 19.3 NNW 12 18 - - 0.0 - - - - - - -
01/12:00pm 18.8 NNW 14 19 - - 0.0 - - - - - - -
01/11:30am 18.5 NW 14 18 - - 0.0 - - - - - - -
01/11:00am 17.6 NW 13 17 - - 0.0 - - - - - - -
01/10:30am 15.5 NNW 10 14 - - 0.0 - - - - - - -
01/10:00am 13.4 NW 8 11 - - 0.0 - - - - - - -
01/09:30am 13.8 NW 10 14 - - 0.0 - - - - - - -
01/09:00am 14.0 NW 8 12 - - 0.0 - - - - - - -
01/08:30am 12.5 WNW 11 14 - - 0.0 - - - - - - -
01/08:00am 10.5 NNW 9 12 - - 0.0 - - - - - - -
01/07:30am 10.0 NNW 10 12 - - 0.0 - - - - - - -
01/07:00am 9.3 NNW 13 15 - - 0.0 - - - - - - -
01/06:30am 9.4 NNW 12 14 - - 0.0 - - - - - - -
01/06:00am 9.9 NNW 11 13 - - 0.0 - - - - - - -
01/05:30am 9.9 NNW 12 15 - - 0.0 - - - - - - -
01/05:00am 10.3 NW 10 13 - - 0.0 - - - - - - -
01/04:30am 10.0 NNW 4 5 - - 0.0 - - - - - - -
01/04:00am 10.3 NW 7 9 - - 0.0 - - - - - - -
01/03:30am 10.0 NW 9 12 - - 0.0 - - - - - - -
01/03:00am 9.8 WNW 10 12 - - 0.0 - - - - - - -
01/02:30am 10.3 NW 10 12 - - 0.0 - - - - - - -
01/02:00am 10.9 NW 4 5 - - 0.0 - - - - - - -
01/01:30am 11.4 NW 5 7 - - 0.0 - - - - - - -
01/01:00am 11.8 NW 6 7 - - 0.0 - - - - - - -
01/12:30am 12.5 NW 5 7 - - 0.0 - - - - - - -
01/12:00am 12.7 NW 4 6 - - 0.0 - - - - - - -
 
Date/Time
EST
Temp

°C
Wind Pressure Rain
since 9am
mm
Weather Cloud Vis
km
Sea
Height
m
Swell
Dir
 
Speed
knots
Gust
knots
hPa Trend Height
m
Period
s
Dir
31/11:30pm 12.2 WNW 5 6 - - 0.0 - - - - - - -
31/11:00pm 12.6 NW 6 7 - - 0.0 - - - - - - -
31/10:30pm 13.5 NNW 6 10 - - 0.0 - - - - - - -
31/10:00pm 14.3 N 8 12 - - 0.0 - - - - - - -
31/09:30pm 14.0 N 9 12 - - 0.0 - - - - - - -
31/09:00pm 14.5 N 8 10 - - 0.0 - - - - - - -
31/08:30pm 14.6 N 6 8 - - 0.0 - - - - - - -
31/08:00pm 15.9 NNE 6 8 - - 0.0 - - - - - - -
31/07:30pm 16.3 NE 6 7 - - 0.0 - - - - - - -
31/07:00pm 17.0 ENE 7 9 - - 0.0 - - - - - - -
31/06:30pm 17.0 ENE 6 7 - - 0.0 - - - - - - -
31/06:00pm 17.0 ENE 8 10 - - 0.0 - - - - - - -
31/05:30pm 17.0 ENE 7 9 - - 0.0 - - - - - - -
31/05:00pm 17.2 ENE 6 7 - - 0.0 - - - - - - -
31/04:30pm 17.9 E 5 6 - - 0.0 - - - - - - -
31/04:00pm 18.2 E 5 7 - - 0.0 - - - - - - -
31/03:30pm 18.0 ESE 5 6 - - 0.0 - - - - - - -
31/03:00pm 18.4 ESE 6 7 - - 0.0 - - - - - - -
31/02:30pm 18.5 SE 6 7 - - 0.0 - - - - - - -
31/02:00pm 18.5 SSE 6 7 - - 0.0 - - - - - - -
31/01:30pm 17.7 SSE 7 9 - - 0.0 - - - - - - -
31/01:00pm 17.9 SSE 10 12 - - 0.0 - - - - - - -
31/12:30pm 18.0 SSW 8 12 - - 0.0 - - - - - - -
31/12:00pm 19.5 NNW 1 3 - - 0.0 - - - - - - -
31/11:30am 18.6 SSW 4 6 - - 0.0 - - - - - - -
31/11:00am 18.7 W 8 13 - - 0.0 - - - - - - -
31/10:30am 17.8 W 9 15 - - 0.0 - - - - - - -
31/10:00am 16.7 NW 18 23 - - 0.0 - - - - - - -
31/09:30am 15.6 NW 12 16 - - 0.0 - - - - - - -
31/09:00am 15.2 NW 13 16 - - 0.0 - - - - - - -
31/08:30am 14.9 NW 10 13 - - 0.0 - - - - - - -
31/08:00am 14.3 NNW 2 6 - - 0.0 - - - - - - -
31/07:30am 13.7 NW 5 7 - - 0.0 - - - - - - -
31/07:00am 13.9 WNW 7 11 - - 0.0 - - - - - - -

Other Formats:

Comma delimited format used in spreadsheet applications
http://www.bom.gov.au/fwo/IDN60701/IDN60701.94774.axf

JavaScript Object Notation format (JSON) in row-major order
http://www.bom.gov.au/fwo/IDN60701/IDN60701.94774.json